Time;durP1;ratioP1;P1;durP2;ratioP2;P2;SDS_P1;SDS_P2;PMS_P1;PMS_P2;Temp;Humidity;BMP_temperature;BMP_pressure;BME280_temperature;BME280_humidity;BME280_pressure;Samples;Min_cycle;Max_cycle;Signal;HPM_P1;HPM_P2
2022/04/19 00:00:41;;;;;;;16.20;11.60;;;;;;;-145.18;100.00;46695.56;5033437;28;20032;-74
2022/04/19 00:03:08;;;;;;;17.27;11.67;;;;;;;-145.18;100.00;46715.09;5032708;28;20048;-74
2022/04/19 00:05:35;;;;;;;15.70;11.13;;;;;;;-145.18;100.00;46699.47;5033375;28;20339;-74
2022/04/19 00:08:00;;;;;;;23.93;12.07;;;;;;;-145.18;100.00;46705.31;5033211;28;20278;-74
2022/04/19 00:10:29;;;;;;;14.97;12.03;;;;;;;-145.18;100.00;46683.84;5033108;28;20271;-74
2022/04/19 00:12:55;;;;;;;15.17;11.50;;;;;;;-145.18;100.00;46668.22;5032619;28;20045;-75
2022/04/19 00:15:21;;;;;;;15.13;10.90;;;;;;;-145.18;100.00;46711.19;5032930;28;20841;-75
2022/04/19 00:17:48;;;;;;;17.07;11.87;;;;;;;-145.18;100.00;46679.94;5031425;28;20377;-74
2022/04/19 00:20:14;;;;;;;14.53;10.27;;;;;;;-145.18;100.00;46679.94;5032858;28;20429;-74
2022/04/19 00:22:39;;;;;;;15.33;11.90;;;;;;;-145.18;100.00;46676.03;5031453;28;20290;-75
2022/04/19 00:25:06;;;;;;;22.53;11.90;;;;;;;-145.18;100.00;46668.22;5032734;28;20117;-74
2022/04/19 00:27:32;;;;;;;21.37;14.27;;;;;;;-145.18;100.00;46636.94;5032743;28;20029;-74
2022/04/19 00:29:58;;;;;;;17.47;12.30;;;;;;;-145.18;100.00;46627.19;5032986;28;20269;-73
2022/04/19 00:32:24;;;;;;;17.93;12.00;;;;;;;-145.18;100.00;46636.94;5032075;28;20037;-74
2022/04/19 00:34:49;;;;;;;18.03;13.53;;;;;;;-145.18;100.00;46609.59;5032668;28;20271;-73
2022/04/19 00:37:15;;;;;;;18.20;13.40;;;;;;;-145.18;100.00;46672.13;5032273;28;20037;-73
2022/04/19 00:39:40;;;;;;;18.43;13.37;;;;;;;-145.18;100.00;46656.50;5032688;28;20080;-74
2022/04/19 00:42:07;;;;;;;21.17;13.87;;;;;;;-145.18;100.00;46658.44;5032185;28;20061;-74
2022/04/19 00:44:37;;;;;;;22.70;14.43;;;;;;;-145.18;100.00;46656.50;5031241;28;20500;-74
2022/04/19 00:47:05;;;;;;;19.37;14.07;;;;;;;-145.18;100.00;46648.69;5031288;28;20282;-74
2022/04/19 00:49:33;;;;;;;21.07;13.00;;;;;;;-145.18;100.00;46642.81;5032376;28;20282;-74
2022/04/19 00:51:59;;;;;;;21.37;13.60;;;;;;;-145.18;100.00;46629.13;5032388;28;20761;-74
2022/04/19 00:54:25;;;;;;;18.87;12.93;;;;;;;-145.18;100.00;46607.66;5031851;28;20279;-73
2022/04/19 00:56:51;;;;;;;19.37;13.33;;;;;;;-145.18;100.00;46595.94;5032196;28;20262;-74
2022/04/19 00:59:20;;;;;;;18.37;12.23;;;;;;;-145.18;100.00;46584.22;5032005;28;20042;-74
2022/04/19 01:01:45;;;;;;;18.93;12.97;;;;;;;-145.18;100.00;46584.22;5031938;28;20556;-74
2022/04/19 01:04:11;;;;;;;18.13;13.27;;;;;;;-145.18;100.00;46570.53;5030956;28;20301;-74
2022/04/19 01:06:36;;;;;;;18.10;12.07;;;;;;;-145.18;100.00;46574.44;5031801;28;20121;-74
2022/04/19 01:09:02;;;;;;;16.37;11.87;;;;;;;-145.18;100.00;46592.03;5032259;28;20060;-74
2022/04/19 01:14:13;;;;;;;17.23;13.18;;;;;;;-145.18;100.00;46570.53;5017109;28;20053;-74
2022/04/19 01:16:41;;;;;;;18.00;13.13;;;;;;;-145.18;100.00;46576.41;5031624;28;20029;-74
2022/04/19 01:19:15;;;;;;;20.47;12.90;;;;;;;-145.18;100.00;46564.69;5031684;28;20179;-74
2022/04/19 01:21:48;;;;;;;20.63;13.03;;;;;;;-145.18;100.00;46558.81;5031816;28;20302;-74
2022/04/19 01:24:18;;;;;;;20.13;14.27;;;;;;;-145.18;100.00;46562.72;5031631;28;20306;-74
2022/04/19 01:26:44;;;;;;;20.13;13.37;;;;;;;-145.18;100.00;46580.31;5031300;28;20750;-74
2022/04/19 01:29:11;;;;;;;21.27;12.93;;;;;;;-145.18;100.00;46582.25;5031374;28;20304;-74
2022/04/19 01:31:38;;;;;;;20.90;13.23;;;;;;;-145.18;100.00;46593.97;5031837;28;20742;-74
2022/04/19 01:34:04;;;;;;;18.77;13.20;;;;;;;-145.18;100.00;46572.50;5031698;28;20278;-74
2022/04/19 01:36:29;;;;;;;19.67;12.77;;;;;;;-145.18;100.00;46590.06;5031060;28;20382;-75
2022/04/19 01:38:55;;;;;;;19.23;13.17;;;;;;;-145.18;100.00;46597.88;5031417;28;20052;-74
2022/04/19 01:41:20;;;;;;;18.03;12.60;;;;;;;-145.18;100.00;46609.59;5031319;28;20049;-74
2022/04/19 01:43:46;;;;;;;16.90;12.13;;;;;;;-145.18;100.00;46611.56;5031293;28;20049;-74
2022/04/19 01:46:12;;;;;;;21.33;11.87;;;;;;;-145.18;100.00;46648.69;5031028;28;20041;-75
2022/04/19 01:48:37;;;;;;;22.60;12.27;;;;;;;-145.18;100.00;46646.72;5031293;28;20084;-75
2022/04/19 01:51:02;;;;;;;20.93;12.50;;;;;;;-145.18;100.00;46621.31;5013476;28;20564;-75
2022/04/19 01:53:29;;;;;;;16.03;11.93;;;;;;;-145.18;100.00;46619.38;5030718;28;20488;-75
2022/04/19 01:55:54;;;;;;;15.33;11.53;;;;;;;-145.18;100.00;46625.22;5031485;28;20025;-74
2022/04/19 01:58:20;;;;;;;17.07;11.93;;;;;;;-145.18;100.00;46640.88;5030461;28;20356;-74
2022/04/19 02:03:20;;;;;;;16.70;12.25;;;;;;;-145.18;100.00;46646.72;4411731;22;20080;-76
2022/04/19 02:05:46;;;;;;;16.07;11.93;;;;;;;-145.18;100.00;46621.31;5030476;28;20170;-76
2022/04/19 02:08:11;;;;;;;17.07;11.80;;;;;;;-145.18;100.00;46609.59;5030123;28;20045;-76
2022/04/19 02:10:36;;;;;;;17.43;11.63;;;;;;;-145.18;100.00;46609.59;5029472;28;20041;-76
2022/04/19 02:13:03;;;;;;;16.30;12.77;;;;;;;-145.18;100.00;46599.84;5030331;28;20025;-76
2022/04/19 02:15:29;;;;;;;15.33;11.00;;;;;;;-145.18;100.00;46613.50;5031260;28;20041;-76
2022/04/19 02:17:54;;;;;;;18.80;12.97;;;;;;;-145.18;100.00;46654.53;5030024;28;20344;-76
2022/04/19 02:20:19;;;;;;;17.37;11.93;;;;;;;-145.18;100.00;46635.00;5031373;28;20040;-76
2022/04/19 02:22:46;;;;;;;16.30;12.23;;;;;;;-145.18;100.00;46619.38;5030683;28;20033;-76
2022/04/19 02:25:13;;;;;;;16.63;12.37;;;;;;;-145.18;100.00;46621.31;5030786;28;20043;-76
2022/04/19 02:27:40;;;;;;;15.13;11.10;;;;;;;-145.18;100.00;46593.97;5030532;28;20274;-76
2022/04/19 02:30:16;;;;;;;16.43;11.67;;;;;;;-145.18;100.00;46605.69;5029876;28;20297;-75
2022/04/19 02:32:47;;;;;;;19.23;13.27;;;;;;;-145.18;100.00;46599.84;5030545;28;20370;-76
2022/04/19 02:35:15;;;;;;;16.40;11.87;;;;;;;-145.18;100.00;46595.94;5030904;28;20266;-76
2022/04/19 02:38:07;;;;;;;20.20;13.30;;;;;;;-145.18;100.00;46595.94;5030272;28;20378;-76
2022/04/19 02:40:32;;;;;;;19.47;13.00;;;;;;;-145.18;100.00;46593.97;5027483;28;20275;-75
2022/04/19 02:42:57;;;;;;;18.00;12.23;;;;;;;-145.18;100.00;46605.69;5030127;28;20278;-75
2022/04/19 02:45:24;;;;;;;16.47;11.50;;;;;;;-145.18;100.00;46595.94;5029499;28;20129;-76
2022/04/19 02:48:05;;;;;;;17.67;12.20;;;;;;;-145.18;100.00;46568.59;5029989;28;20432;-76
2022/04/19 02:50:41;;;;;;;18.30;12.23;;;;;;;-145.18;100.00;46568.59;5030499;28;20262;-76
2022/04/19 02:53:07;;;;;;;16.50;12.43;;;;;;;-145.18;100.00;46576.41;5028976;28;20270;-76
2022/04/19 02:55:32;;;;;;;18.10;11.87;;;;;;;-145.18;100.00;46601.78;5030245;28;20620;-76
2022/04/19 02:57:58;;;;;;;15.23;12.33;;;;;;;-145.18;100.00;46611.56;5029471;28;20112;-76
2022/04/19 03:00:24;;;;;;;16.03;11.63;;;;;;;-145.18;100.00;46611.56;5030646;28;20116;-76
2022/04/19 03:03:48;;;;;;;16.70;12.50;;;;;;;-145.18;100.00;46615.47;5029428;28;20056;-76
2022/04/19 03:07:44;;;;;;;16.37;12.20;;;;;;;-145.18;100.00;46592.03;5007870;28;20076;-77
2022/04/19 03:15:11;;;;;;;16.57;12.57;;;;;;;-145.18;100.00;46597.88;5007412;28;20290;-76
2022/04/19 03:29:48;;;;;;;16.33;11.70;;;;;;;-145.18;100.00;46586.16;5007194;28;20861;-76
2022/04/19 03:33:48;;;;;;;19.03;12.53;;;;;;;-145.18;100.00;46590.06;5007577;28;20259;-76
2022/04/19 03:37:45;;;;;;;21.20;14.20;;;;;;;-145.18;100.00;46578.34;5007672;28;20282;-76
2022/04/19 03:45:09;;;;;;;22.47;14.37;;;;;;;-145.18;100.00;46590.06;5007119;28;20275;-76
2022/04/19 03:49:01;;;;;;;16.57;12.43;;;;;;;-145.18;100.00;46590.06;5007013;28;20926;-76
2022/04/19 03:52:53;;;;;;;18.07;13.53;;;;;;;-145.18;100.00;46568.59;4968284;28;20277;-76
2022/04/19 03:56:33;;;;;;;22.77;14.87;;;;;;;-145.18;100.00;46570.53;4966621;28;20276;-76
2022/04/19 04:00:26;;;;;;;21.93;14.30;;;;;;;-145.18;100.00;46576.41;4968179;28;20755;-76
2022/04/19 12:27:45;;;;;;;10.43;5.80;;;;;;;-145.18;65.77;46918.25;5009930;28;20565;-78
2022/04/19 13:52:53;;;;;;;10.57;5.90;;;;;;;-145.18;57.05;46887.00;4992220;28;20133;-78
2022/04/19 13:56:46;;;;;;;10.93;5.30;;;;;;;-145.18;56.38;46910.44;4991978;28;20042;-78
2022/04/19 14:04:17;;;;;;;10.67;5.57;;;;;;;-145.18;57.22;46916.28;4991568;28;20072;-78
2022/04/19 14:08:07;;;;;;;11.43;6.37;;;;;;;-145.18;58.70;46918.25;4991560;28;20034;-77
2022/04/19 14:12:06;;;;;;;11.67;5.67;;;;;;;-145.18;58.46;46933.88;4991322;28;20505;-78
2022/04/19 14:16:01;;;;;;;11.15;5.70;;;;;;;-145.18;57.22;46926.06;4991421;28;20033;-78
2022/04/19 14:19:56;;;;;;;9.93;5.37;;;;;;;-145.18;58.25;46898.72;4991501;28;20041;-78
2022/04/19 14:27:26;;;;;;;14.83;6.40;;;;;;;-145.18;58.25;46898.72;4991175;28;20053;-78
2022/04/19 14:35:01;;;;;;;15.17;6.73;;;;;;;-145.18;60.80;46885.03;4991608;28;20068;-78
2022/04/19 14:38:52;;;;;;;10.83;6.10;;;;;;;-145.18;53.82;46898.72;4991666;28;20033;-78
2022/04/19 14:42:51;;;;;;;10.33;5.93;;;;;;;-145.18;55.09;46906.53;4991390;28;20105;-78
